Oslo, MN

08:44 AM CST on Februarie 26, 2017 (GMT -0600)
Corner Farms | | Change Station
Active Advisory: Flood Warning

Elev 810 ft 48.34 °N, 97.00 °W | Updated 4 seconds ago

Oop
Oop
7.5 °F
Feels Like -3 °F
N
6.0
Wind Veranderlik Wind from Wes
Gusts 7.0 mph

Vandag
High -- | Low -- °F
--% Chance of Precip.
Yesterday
High -- | Low -- °F
Precip. -- in
Druk 29.87 in
Sigbaarheid 10.0 myle
Wolke Oop
Wind afkoel -3 °F
Dou-punt 3 °F
Humiditeit 80%
Rainfall 0.00 in
Snow Depth Not available.
7:14 AM 6:08 PM
Waning Crescent, 0% visible
METAR KGFK 261353Z 28007KT 10SM CLR M17/M21 A2981 RMK AO2 SLP113 T11671206
Druk 29.87 in
Sigbaarheid 10.0 myle
Wolke Oop
Wind afkoel -3 °F
Dou-punt 3 °F
Humiditeit 80%
Rainfall 0.00 in
Snow Depth Not available.
7:14 AM 6:08 PM
Waning Crescent, 0% visible
METAR KGFK 261353Z 28007KT 10SM CLR M17/M21 A2981 RMK AO2 SLP113 T11671206

Get Your Daily Forecast Email!

Thanks for signing up!

Be on the lookout for a verification email in your inbox.

You'll start receiving the daily forecast at 8 AM.

×

10-Day Weather Forecast

Almanac

Astronomy

Feb. 26, 2017 Rise Set
Ware Tyd
Civil Twilight
Nautical Twilight
Astronomical Twilight
Maan
Length Of Visible Light
Length of Day
Tomorrow will be .
, % of the Moon is Illuminated

Today's Extremes

State Highs State Lows

Community

WunderPhotos

Upload Photos

1,962,540 photos uploaded!

WunderBlog® & News

Nearby

Air Quality

  Air Quality AQ Index Pollutant
Not available.

Snow Depth

Station Depth Elevation

Earthquake Activity

Stad Distance Mag. Time & Date
Minimum magnitude displayed is 2.5.

Coastal Water Temperatures

Plek Temperatuur

Stations

Nearby Weather Stations

Station Location Temp Wind afkoel Dou-punt Humiditeit Wind Precip. Elev Opdateer Type
                   

Watches & Warnings

Flood Warning
Issued: 8:25 PM CST Feb. 25, 2017 – National Weather Service

The Flood Warning continues for...
* ... Oslo... on the Red River.
* Until further notice... or until the warning is cancelled.
* At 7:15 PM Saturday the stage was 26.3 feet.
* Minor flooding is occurring and during the next 7 days... minor
flooding is forecast.
* Minor flood stage is 26.0 feet.
* Forecast... the river will rise to a crest near 28.5 feet sometime
Tuesday then begin falling.
* The river is forecast to crest at 28.5 on Tuesday during this 7-day
period.
* Impact statement(s) - at 30.0 feet, moderate flood stage.


Daily 7pm CDT/6pm CST forecast stage in feet:

date sun Mon Tue Wed Thu Fri Sat
(month/day) 02/26 02/27 02/28 03/01 03/02 03/03 03/04
Oslo 27.6 28.4 28.2 27.7 27.1 26.6 26.1
lat... Lon 4810 9721 4807 9698 4846 9706 4848 9725